createdAt,value
2018-04-10T00:00:05.837Z,39.53
2018-04-10T00:02:34.293Z,43.83
2018-04-10T00:05:02.556Z,44.30
2018-04-10T00:07:30.847Z,43.40
2018-04-10T00:09:59.213Z,44.97
2018-04-10T00:12:28.186Z,44.43
2018-04-10T00:14:56.443Z,43.00
2018-04-10T00:17:24.683Z,42.40
2018-04-10T00:19:53.041Z,44.90
2018-04-10T00:22:21.219Z,40.47
2018-04-10T00:24:49.490Z,41.90
2018-04-10T00:27:17.754Z,43.53
2018-04-10T00:29:45.940Z,44.30
2018-04-10T00:32:14.332Z,42.87
2018-04-10T00:34:42.612Z,42.93
2018-04-10T00:37:11.837Z,40.97
2018-04-10T00:39:40.829Z,41.90
2018-04-10T00:42:09.172Z,38.30
2018-04-10T00:44:37.465Z,38.87
2018-04-10T00:47:07.224Z,36.87
2018-04-10T00:49:36.203Z,36.30
2018-04-10T00:52:04.650Z,35.20
2018-04-10T00:54:32.855Z,37.07
2018-04-10T00:57:01.135Z,39.13
2018-04-10T00:59:29.361Z,38.33
2018-04-10T01:01:57.638Z,41.60
2018-04-10T01:04:26.065Z,44.30
2018-04-10T01:06:55.543Z,45.50
2018-04-10T01:09:23.971Z,46.90
2018-04-10T01:11:57.445Z,49.17
2018-04-10T01:14:31.261Z,49.43
2018-04-10T01:17:00.003Z,52.40
2018-04-10T01:19:28.909Z,55.17
2018-04-10T01:21:58.281Z,52.77
2018-04-10T01:24:27.444Z,49.60
2018-04-10T01:27:00.283Z,58.13
2018-04-10T01:29:29.448Z,58.33
2018-04-10T01:32:00.154Z,55.20
2018-04-10T01:34:38.340Z,54.17
2018-04-10T01:37:08.151Z,57.07
2018-04-10T01:39:37.967Z,57.73
2018-04-10T01:42:06.220Z,55.43
2018-04-10T01:44:34.504Z,58.00
2018-04-10T01:47:02.756Z,58.17
2018-04-10T01:49:31.286Z,57.83
2018-04-10T01:54:40.888Z,57.53
2018-04-10T01:57:09.939Z,55.97
2018-04-10T01:59:38.150Z,55.97
2018-04-10T02:02:06.382Z,59.03
2018-04-10T02:04:34.786Z,62.17
2018-04-10T02:07:03.395Z,65.43
2018-04-10T02:09:32.423Z,65.07
2018-04-10T02:12:01.562Z,63.30
2018-04-10T02:14:31.791Z,64.10
2018-04-10T02:17:00.860Z,69.00
2018-04-10T02:19:29.125Z,71.17
2018-04-10T02:21:57.387Z,69.50
2018-04-10T02:24:26.415Z,67.27
2018-04-10T02:26:54.807Z,70.40
2018-04-10T02:29:23.067Z,66.53
2018-04-10T02:31:51.363Z,63.00
2018-04-10T02:34:19.641Z,61.37
2018-04-10T02:36:47.901Z,64.13
2018-04-10T02:39:16.233Z,60.70
2018-04-10T02:41:45.325Z,65.03
2018-04-10T02:44:13.635Z,65.90
2018-04-10T02:46:41.983Z,65.03
2018-04-10T02:49:10.240Z,66.50
2018-04-10T02:51:38.531Z,67.40
2018-04-10T02:54:06.756Z,70.17
2018-04-10T02:56:35.058Z,75.47
2018-04-10T02:59:03.296Z,72.50
2018-04-10T03:01:32.250Z,70.67
2018-04-10T03:04:00.496Z,73.67
2018-04-10T03:06:28.787Z,74.03
2018-04-10T03:08:57.022Z,74.30
2018-04-10T03:11:25.360Z,74.03
2018-04-10T03:13:53.610Z,72.23
2018-04-10T03:16:21.810Z,73.77
2018-04-10T03:18:50.048Z,72.00
2018-04-10T03:21:18.300Z,76.13
2018-04-10T03:23:47.310Z,74.33
2018-04-10T03:26:16.258Z,79.93
2018-04-10T03:28:44.484Z,75.57
2018-04-10T03:31:14.521Z,76.13
2018-04-10T03:33:42.790Z,79.30
2018-04-10T03:36:11.046Z,74.77
2018-04-10T03:38:39.370Z,74.30
2018-04-10T03:41:09.879Z,70.13
2018-04-10T03:43:38.792Z,72.27
2018-04-10T03:46:07.078Z,69.87
2018-04-10T03:48:35.320Z,66.70
2018-04-10T03:51:03.608Z,68.73
2018-04-10T03:53:32.214Z,67.20
2018-04-10T03:56:00.604Z,66.93
2018-04-10T03:58:29.701Z,64.83
2018-04-10T04:00:57.953Z,63.10
2018-04-10T04:03:26.237Z,61.43
2018-04-10T04:05:54.435Z,60.77
2018-04-10T04:08:22.739Z,60.57
2018-04-10T04:10:51.197Z,59.67
2018-04-10T04:13:19.530Z,60.53
2018-04-10T04:15:47.814Z,60.33
2018-04-10T04:18:28.109Z,60.90
2018-04-10T04:21:08.461Z,59.13
2018-04-10T04:23:36.678Z,59.20
2018-04-10T04:26:05.033Z,61.57
2018-04-10T04:28:33.293Z,63.57
2018-04-10T04:31:02.223Z,64.17
2018-04-10T04:33:30.689Z,68.87
2018-04-10T04:35:58.925Z,65.23
2018-04-10T04:38:27.181Z,65.17
2018-04-10T04:40:56.306Z,65.43
2018-04-10T04:43:24.903Z,64.97
2018-04-10T04:45:53.590Z,64.97
2018-04-10T04:48:22.004Z,62.80
2018-04-10T04:50:50.283Z,61.47
2018-04-10T04:53:18.552Z,58.60
2018-04-10T04:55:46.784Z,54.23
2018-04-10T04:58:15.764Z,51.03
2018-04-10T05:00:44.773Z,50.27
2018-04-10T05:03:13.081Z,47.70
2018-04-10T05:05:43.021Z,45.43
2018-04-10T05:08:11.229Z,45.23
2018-04-10T05:10:40.467Z,45.63
2018-04-10T05:13:08.760Z,41.63
2018-04-10T05:15:37.924Z,43.30
2018-04-10T05:18:06.191Z,40.57
2018-04-10T05:20:36.007Z,42.70
2018-04-10T05:23:05.030Z,44.33
2018-04-10T05:25:33.260Z,45.17
2018-04-10T05:28:02.319Z,49.90
2018-04-10T05:30:30.601Z,49.13
2018-04-10T05:32:59.177Z,51.73
2018-04-10T05:35:27.795Z,51.93
2018-04-10T05:37:56.866Z,51.10
2018-04-10T05:40:25.185Z,56.23
2018-04-10T05:42:54.179Z,54.07
2018-04-10T05:45:23.184Z,53.67
2018-04-10T05:47:51.607Z,47.97
2018-04-10T05:50:19.875Z,43.33
2018-04-10T05:52:48.125Z,41.87
2018-04-10T05:55:17.113Z,40.47
2018-04-10T05:57:46.089Z,38.70
2018-04-10T06:00:15.169Z,39.00
2018-04-10T06:02:45.001Z,36.80
2018-04-10T06:05:14.740Z,34.27
2018-04-10T06:07:43.783Z,34.17
2018-04-10T06:10:12.002Z,35.13
2018-04-10T06:12:40.496Z,34.67
2018-04-10T06:15:08.792Z,34.97
2018-04-10T06:17:37.298Z,35.90
2018-04-10T06:20:06.328Z,33.77
2018-04-10T06:22:35.393Z,32.03
2018-04-10T06:25:03.847Z,31.73
2018-04-10T06:27:32.277Z,30.63
2018-04-10T06:30:01.719Z,27.80
2018-04-10T06:32:30.127Z,28.20
2018-04-10T06:34:58.501Z,27.77
2018-04-10T06:37:26.838Z,28.43
2018-04-10T06:39:55.946Z,25.73
2018-04-10T06:42:24.243Z,26.43
2018-04-10T06:44:53.631Z,25.67
2018-04-10T06:47:22.018Z,26.13
2018-04-10T06:49:51.791Z,26.23
2018-04-10T06:52:20.865Z,24.17
2018-04-10T06:54:49.485Z,25.27
2018-04-10T06:57:18.500Z,25.67
2018-04-10T06:59:46.729Z,25.53
2018-04-10T07:02:15.145Z,24.60
2018-04-10T07:04:43.681Z,23.67
2018-04-10T07:07:12.061Z,23.40
2018-04-10T07:09:40.329Z,21.00
2018-04-10T07:12:09.371Z,21.97
2018-04-10T07:14:38.332Z,20.00
2018-04-10T07:17:06.704Z,20.50
2018-04-10T07:19:35.829Z,21.27
2018-04-10T07:22:04.917Z,20.17
2018-04-10T07:24:33.489Z,20.00
2018-04-10T07:27:01.973Z,18.80
2018-04-10T07:29:30.664Z,20.60
2018-04-10T07:31:58.915Z,19.67
2018-04-10T07:34:27.317Z,18.67
2018-04-10T07:36:55.590Z,18.07
2018-04-10T07:39:23.937Z,16.97
2018-04-10T07:41:52.205Z,16.17
2018-04-10T07:44:20.748Z,15.37
2018-04-10T07:46:49.247Z,14.93
2018-04-10T07:49:19.209Z,16.20
2018-04-10T07:51:47.436Z,15.90
2018-04-10T07:54:16.481Z,15.57
2018-04-10T07:56:45.487Z,14.77
2018-04-10T07:59:13.720Z,14.70
2018-04-10T08:01:41.997Z,14.00
2018-04-10T08:04:11.039Z,12.67
2018-04-10T08:06:39.360Z,12.37
2018-04-10T08:09:07.817Z,12.63
2018-04-10T08:11:36.071Z,12.60
2018-04-10T08:14:04.677Z,11.53
2018-04-10T08:16:33.366Z,12.87
2018-04-10T08:19:01.845Z,11.07
2018-04-10T08:21:31.047Z,10.50
2018-04-10T08:23:59.719Z,11.10
2018-04-10T08:26:28.120Z,10.17
2018-04-10T08:28:56.443Z,9.43
2018-04-10T08:31:24.771Z,9.57
2018-04-10T08:33:53.002Z,8.53
2018-04-10T08:36:22.140Z,8.30
2018-04-10T08:38:50.711Z,8.27
2018-04-10T08:41:19.941Z,8.40
2018-04-10T08:43:48.200Z,7.80
2018-04-10T08:46:16.531Z,7.70
2018-04-10T08:48:44.979Z,7.17
2018-04-10T08:51:14.813Z,7.23
2018-04-10T08:53:44.592Z,7.63
2018-04-10T08:56:13.483Z,7.70
2018-04-10T08:58:41.914Z,7.70
2018-04-10T09:01:10.944Z,7.87
2018-04-10T09:03:39.194Z,7.13
2018-04-10T09:06:08.476Z,7.20
2018-04-10T09:08:36.720Z,6.57
2018-04-10T09:11:05.369Z,6.73
2018-04-10T09:13:33.626Z,7.43
2018-04-10T09:16:02.777Z,7.60
2018-04-10T09:18:31.042Z,8.00
2018-04-10T09:21:00.088Z,7.20
2018-04-10T09:23:29.816Z,8.33
2018-04-10T09:25:58.802Z,7.37
2018-04-10T09:28:27.772Z,6.50
2018-04-10T09:30:55.999Z,7.17
2018-04-10T09:33:24.951Z,6.83
2018-04-10T09:35:53.176Z,6.90
2018-04-10T09:38:22.046Z,7.00
2018-04-10T09:40:51.005Z,6.60
2018-04-10T09:43:20.787Z,6.67
2018-04-10T09:45:48.988Z,5.17
2018-04-10T09:48:17.171Z,5.30
2018-04-10T09:50:45.439Z,5.40
2018-04-10T09:53:13.616Z,5.70
2018-04-10T09:55:41.802Z,5.40
2018-04-10T09:58:10.007Z,4.47
2018-04-10T10:00:42.588Z,4.70
2018-04-10T10:03:10.801Z,4.37
2018-04-10T10:05:39.005Z,4.97
2018-04-10T10:08:08.797Z,4.00
2018-04-10T10:10:37.095Z,3.20
2018-04-10T10:13:05.467Z,3.20
2018-04-10T10:15:33.723Z,4.17
2018-04-10T10:18:02.130Z,3.70
2018-04-10T10:20:31.895Z,3.47
2018-04-10T10:23:00.555Z,3.93
2018-04-10T10:25:28.947Z,4.07
2018-04-10T10:27:58.033Z,3.80
2018-04-10T10:30:26.378Z,2.53
2018-04-10T10:32:54.634Z,2.40
2018-04-10T10:35:23.673Z,2.87
2018-04-10T10:37:51.912Z,2.60
2018-04-10T10:40:21.020Z,2.80
2018-04-10T10:42:49.341Z,2.67
2018-04-10T10:45:17.693Z,2.00
2018-04-10T10:47:45.913Z,2.30
2018-04-10T10:50:14.177Z,2.50
2018-04-10T10:52:43.219Z,2.10
2018-04-10T10:55:12.205Z,2.87
2018-04-10T10:57:41.277Z,3.00
2018-04-10T11:00:09.528Z,2.90
2018-04-10T11:02:38.643Z,3.20
2018-04-10T11:05:07.184Z,3.10
2018-04-10T11:07:35.406Z,2.70
2018-04-10T11:10:03.751Z,3.03
2018-04-10T11:12:32.149Z,2.40
2018-04-10T11:15:01.860Z,2.57
2018-04-10T11:17:30.314Z,2.93
2018-04-10T11:19:58.552Z,3.43
2018-04-10T11:22:29.510Z,3.40
2018-04-10T11:24:57.963Z,3.20
2018-04-10T11:27:26.946Z,3.50
2018-04-10T11:29:55.191Z,3.77
2018-04-10T11:32:23.435Z,3.73
2018-04-10T11:34:51.744Z,3.50
2018-04-10T11:37:19.985Z,3.50
2018-04-10T11:39:49.114Z,3.67
2018-04-10T11:42:17.336Z,3.30
2018-04-10T11:44:46.408Z,3.27
2018-04-10T11:47:14.774Z,3.40
2018-04-10T11:49:42.973Z,3.30
2018-04-10T11:52:11.197Z,3.40
2018-04-10T11:54:40.170Z,3.37
2018-04-10T11:57:09.897Z,3.30
2018-04-10T11:59:38.861Z,3.57
2018-04-10T12:02:07.075Z,3.43
2018-04-10T12:04:35.587Z,3.87
2018-04-10T12:07:03.787Z,3.63
2018-04-10T12:09:32.126Z,4.30
2018-04-10T12:12:01.140Z,4.23
2018-04-10T12:14:29.390Z,3.80
2018-04-10T12:16:57.816Z,3.23
2018-04-10T12:19:27.720Z,4.40
2018-04-10T12:21:57.640Z,4.00
2018-04-10T12:24:26.729Z,3.47
2018-04-10T12:26:55.130Z,3.80
2018-04-10T12:29:23.380Z,3.50
2018-04-10T12:31:51.669Z,3.47
2018-04-10T12:34:20.671Z,3.30
2018-04-10T12:36:48.942Z,3.20
2018-04-10T12:39:17.172Z,2.83
2018-04-10T12:41:45.605Z,2.87
2018-04-10T12:44:13.815Z,3.30
2018-04-10T12:46:42.156Z,3.47
2018-04-10T12:49:10.394Z,3.10
2018-04-10T12:51:38.926Z,3.43
2018-04-10T12:54:07.360Z,2.97
2018-04-10T12:56:36.413Z,2.77
2018-04-10T12:59:05.500Z,2.60
2018-04-10T13:01:33.708Z,3.20
2018-04-10T13:04:02.049Z,3.20
2018-04-10T13:06:30.357Z,3.00
2018-04-10T13:08:59.561Z,3.03
2018-04-10T13:11:28.572Z,3.60
2018-04-10T13:13:57.654Z,3.80
2018-04-10T13:16:26.718Z,4.10
2018-04-10T13:18:54.948Z,3.90
2018-04-10T13:21:23.159Z,3.60
2018-04-10T13:23:51.420Z,3.60
2018-04-10T13:26:20.355Z,4.00
2018-04-10T13:28:48.630Z,4.00
2018-04-10T13:31:17.006Z,4.20
2018-04-10T13:33:45.220Z,4.17
2018-04-10T13:36:13.462Z,3.50
2018-04-10T13:38:41.810Z,3.60
2018-04-10T13:41:10.058Z,4.00
2018-04-10T13:43:39.242Z,3.60
2018-04-10T13:46:08.519Z,3.97
2018-04-10T13:48:36.789Z,3.80
2018-04-10T13:51:05.169Z,4.07
2018-04-10T13:53:33.581Z,3.90
2018-04-10T13:56:01.857Z,4.13
2018-04-10T13:58:30.492Z,4.10
2018-04-10T14:01:00.326Z,3.50
2018-04-10T14:03:29.363Z,3.17
2018-04-10T14:05:58.235Z,3.67
2018-04-10T14:08:28.235Z,3.33
2018-04-10T14:10:56.452Z,3.93
2018-04-10T14:13:25.504Z,3.70
2018-04-10T14:15:54.649Z,3.10
2018-04-10T14:18:23.090Z,3.07
2018-04-10T14:20:51.873Z,3.40
2018-04-10T14:23:20.164Z,3.27
2018-04-10T14:25:48.423Z,3.17
2018-04-10T14:28:16.655Z,3.67
2018-04-10T14:30:44.919Z,3.30
2018-04-10T14:33:13.267Z,3.53
2018-04-10T14:35:41.550Z,3.40
2018-04-10T14:38:09.772Z,3.43
2018-04-10T14:40:38.105Z,3.30
2018-04-10T14:43:06.479Z,3.50
2018-04-10T14:45:35.391Z,3.50
2018-04-10T14:48:03.613Z,3.67
2018-04-10T14:50:33.298Z,3.80
2018-04-10T14:53:02.747Z,3.40
2018-04-10T14:55:31.161Z,3.80
2018-04-10T14:57:59.462Z,3.70
2018-04-10T15:00:27.688Z,3.10
2018-04-10T15:02:56.091Z,3.00
2018-04-10T15:05:24.623Z,3.20
2018-04-10T15:07:53.130Z,3.30
2018-04-10T15:10:22.185Z,3.57
2018-04-10T15:12:51.303Z,3.60
2018-04-10T15:15:20.304Z,3.63
2018-04-10T15:17:49.554Z,3.43
2018-04-10T15:20:17.793Z,3.40
2018-04-10T15:22:46.806Z,3.83
2018-04-10T15:25:15.411Z,3.80
2018-04-10T15:27:43.665Z,4.20
2018-04-10T15:30:12.067Z,3.97
2018-04-10T15:32:40.337Z,4.30
2018-04-10T15:35:08.784Z,3.57
2018-04-10T15:37:37.987Z,3.37
2018-04-10T15:40:07.129Z,3.43
2018-04-10T15:42:35.369Z,3.93
2018-04-10T15:45:04.356Z,4.10
2018-04-10T15:47:33.684Z,3.63
2018-04-10T15:50:02.081Z,3.80
2018-04-10T15:52:30.330Z,4.47
2018-04-10T15:54:59.183Z,4.90
2018-04-10T15:57:27.448Z,4.20
2018-04-10T15:59:55.662Z,4.30
2018-04-10T16:02:23.954Z,4.50
2018-04-10T16:04:52.898Z,4.23
2018-04-10T16:07:21.254Z,3.83
2018-04-10T16:09:49.504Z,4.13
2018-04-10T16:12:18.659Z,3.80
2018-04-10T16:14:47.106Z,4.37
2018-04-10T16:17:15.330Z,4.67
2018-04-10T16:19:44.324Z,4.20
2018-04-10T16:22:13.570Z,4.43
2018-04-10T16:24:41.860Z,4.70
2018-04-10T16:27:10.110Z,4.57
2018-04-10T16:29:39.312Z,3.90
2018-04-10T16:32:07.635Z,4.20
2018-04-10T16:34:35.949Z,4.00
2018-04-10T16:37:05.071Z,4.00
2018-04-10T16:39:33.993Z,4.17
2018-04-10T16:42:02.284Z,3.77
2018-04-10T16:44:30.636Z,3.77
2018-04-10T16:46:58.921Z,3.53
2018-04-10T16:49:27.163Z,4.20
2018-04-10T16:51:55.483Z,4.23
2018-04-10T16:54:23.755Z,5.00
2018-04-10T16:56:51.999Z,5.33
2018-04-10T16:59:20.998Z,5.80
2018-04-10T17:01:49.519Z,5.80
2018-04-10T17:04:17.757Z,5.83
2018-04-10T17:06:46.863Z,5.73
2018-04-10T17:09:15.932Z,5.83
2018-04-10T17:11:44.967Z,6.00
2018-04-10T17:14:14.000Z,6.33
2018-04-10T17:16:42.241Z,6.27
2018-04-10T17:19:11.661Z,6.17
2018-04-10T17:21:40.003Z,6.50
2018-04-10T17:24:09.149Z,7.07
2018-04-10T17:26:37.400Z,6.10
2018-04-10T17:29:05.696Z,7.30
2018-04-10T17:31:33.921Z,6.63
2018-04-10T17:34:02.138Z,6.17
2018-04-10T17:36:30.431Z,5.77
2018-04-10T17:38:58.702Z,5.20
2018-04-10T17:41:26.882Z,6.17
2018-04-10T17:43:55.172Z,7.30
2018-04-10T17:46:23.510Z,8.83
2018-04-10T17:48:51.826Z,7.40
2018-04-10T17:51:20.274Z,6.50
2018-04-10T17:53:48.810Z,4.80
2018-04-10T17:56:18.092Z,6.13
2018-04-10T17:58:46.390Z,6.80
2018-04-10T18:01:14.763Z,7.53
2018-04-10T18:03:43.751Z,3.10
2018-04-10T18:06:12.420Z,3.93
2018-04-10T18:08:40.923Z,3.57
2018-04-10T18:11:09.388Z,4.13
2018-04-10T18:13:38.196Z,4.23
2018-04-10T18:16:07.384Z,4.43
2018-04-10T18:18:35.699Z,5.60
2018-04-10T18:21:04.251Z,5.20
2018-04-10T18:23:32.522Z,5.00
2018-04-10T18:26:00.763Z,4.90
2018-04-10T18:28:29.045Z,5.30
2018-04-10T18:30:58.118Z,5.23
2018-04-10T18:33:26.443Z,5.07
2018-04-10T18:35:54.637Z,5.70
2018-04-10T18:38:23.723Z,6.13
2018-04-10T18:40:52.016Z,5.60
2018-04-10T18:43:21.293Z,6.30
2018-04-10T18:45:49.583Z,7.00
2018-04-10T18:48:17.965Z,7.00
2018-04-10T18:50:47.625Z,6.97
2018-04-10T18:53:16.707Z,6.40
2018-04-10T18:55:45.165Z,7.03
2018-04-10T18:58:13.490Z,6.70
2018-04-10T19:00:41.729Z,6.60
2018-04-10T19:03:10.016Z,6.17
2018-04-10T19:05:38.443Z,5.97
2018-04-10T19:08:06.719Z,5.70
2018-04-10T19:10:34.983Z,5.73
2018-04-10T19:13:03.178Z,5.90
2018-04-10T19:15:31.442Z,5.33
2018-04-10T19:18:00.666Z,6.10
2018-04-10T19:20:28.894Z,5.40
2018-04-10T19:22:58.062Z,5.07
2018-04-10T19:25:26.314Z,5.53
2018-04-10T19:27:54.642Z,5.00
2018-04-10T19:30:22.886Z,5.57
2018-04-10T19:32:51.144Z,5.37
2018-04-10T19:35:21.117Z,5.53
2018-04-10T19:37:49.852Z,4.83
2018-04-10T19:40:18.991Z,5.50
2018-04-10T19:42:47.285Z,5.87
2018-04-10T19:45:15.677Z,5.83
2018-04-10T19:47:44.673Z,5.07
2018-04-10T19:50:12.914Z,5.20
2018-04-10T19:52:42.046Z,6.80
2018-04-10T19:55:11.105Z,5.30
2018-04-10T19:57:39.515Z,5.73
2018-04-10T20:00:07.751Z,5.83
2018-04-10T20:02:36.055Z,5.53
2018-04-10T20:05:04.301Z,4.97
2018-04-10T20:07:32.511Z,5.03
2018-04-10T20:10:00.751Z,5.40
2018-04-10T20:12:29.827Z,5.63
2018-04-10T20:14:58.869Z,5.40
2018-04-10T20:17:27.187Z,5.80
2018-04-10T20:19:58.446Z,6.13
2018-04-10T20:22:26.926Z,6.20
2018-04-10T20:24:56.038Z,6.63
2018-04-10T20:27:24.356Z,6.30
2018-04-10T20:29:52.834Z,6.47
2018-04-10T20:32:21.333Z,5.40
2018-04-10T20:34:49.721Z,6.33
2018-04-10T20:37:17.916Z,6.87
2018-04-10T20:39:47.001Z,6.40
2018-04-10T20:42:15.270Z,6.30
2018-04-10T20:44:43.783Z,6.80
2018-04-10T20:47:12.825Z,6.37
2018-04-10T20:49:41.100Z,6.63
2018-04-10T20:52:09.491Z,6.57
2018-04-10T20:54:37.710Z,6.60
2018-04-10T20:57:06.708Z,6.50
2018-04-10T20:59:35.018Z,6.67
2018-04-10T21:02:03.335Z,6.50
2018-04-10T21:04:32.225Z,6.17
2018-04-10T21:07:00.502Z,5.80
2018-04-10T21:09:29.690Z,5.13
2018-04-10T21:11:59.164Z,5.60
2018-04-10T21:14:27.416Z,4.90
2018-04-10T21:16:55.625Z,5.00
2018-04-10T21:19:23.915Z,5.10
2018-04-10T21:21:52.229Z,5.30
2018-04-10T21:24:20.445Z,5.77
2018-04-10T21:26:50.195Z,5.00
2018-04-10T21:29:18.517Z,5.30
2018-04-10T21:31:48.288Z,5.43
2018-04-10T21:34:16.575Z,5.10
2018-04-10T21:36:44.831Z,5.63
2018-04-10T21:39:13.013Z,6.17
2018-04-10T21:41:41.245Z,5.50
2018-04-10T21:44:09.504Z,6.00
2018-04-10T21:46:37.742Z,6.23
2018-04-10T21:49:05.975Z,6.37
2018-04-10T21:51:34.185Z,6.47
2018-04-10T21:54:02.402Z,6.43
2018-04-10T21:56:30.731Z,6.20
2018-04-10T21:58:58.996Z,6.90
2018-04-10T22:01:27.998Z,6.87
2018-04-10T22:03:56.337Z,6.33
2018-04-10T22:06:24.561Z,6.83
2018-04-10T22:08:52.765Z,6.90
2018-04-10T22:11:21.047Z,6.90
2018-04-10T22:13:49.279Z,6.90
2018-04-10T22:16:18.320Z,6.50
2018-04-10T22:18:47.306Z,6.83
2018-04-10T22:21:15.601Z,6.30
2018-04-10T22:23:43.829Z,6.17
2018-04-10T22:26:12.082Z,6.90
2018-04-10T22:28:41.787Z,6.03
2018-04-10T22:31:10.137Z,8.27
2018-04-10T22:33:38.392Z,8.33
2018-04-10T22:36:06.684Z,9.30
2018-04-10T22:38:35.062Z,8.67
2018-04-10T22:41:03.408Z,9.47
2018-04-10T22:43:32.502Z,9.30
2018-04-10T22:46:00.905Z,10.43
2018-04-10T22:48:29.825Z,11.17
2018-04-10T22:50:58.078Z,10.80
2018-04-10T22:53:26.754Z,11.57
2018-04-10T22:55:55.017Z,10.37
2018-04-10T22:58:23.324Z,10.73
2018-04-10T23:00:51.542Z,10.47
2018-04-10T23:03:19.781Z,10.67
2018-04-10T23:05:48.037Z,9.33
2018-04-10T23:08:16.448Z,9.47
2018-04-10T23:10:44.714Z,10.00
2018-04-10T23:13:13.049Z,9.47
2018-04-10T23:15:42.057Z,9.53
2018-04-10T23:18:11.056Z,9.97
2018-04-10T23:20:40.056Z,10.67
2018-04-10T23:23:09.059Z,9.73
2018-04-10T23:25:38.095Z,11.13
2018-04-10T23:28:06.331Z,9.90
2018-04-10T23:30:34.581Z,10.77
2018-04-10T23:33:03.677Z,10.03
2018-04-10T23:35:32.038Z,10.57
2018-04-10T23:38:00.284Z,10.40
2018-04-10T23:40:29.405Z,10.00
2018-04-10T23:42:57.681Z,10.00
2018-04-10T23:45:25.961Z,10.93
2018-04-10T23:47:54.226Z,10.03
2018-04-10T23:50:23.061Z,10.33
2018-04-10T23:52:52.849Z,10.43
2018-04-10T23:55:21.084Z,10.00
2018-04-10T23:57:50.073Z,10.23
